Brunssum, Netherlands
Current Conditions -  °F | °C
As of 1:50 PM on Monday 20 Oct 2014 (Local Time) from ETNG Reporting Station
Broken Clouds Broken Clouds  
Wind Chill: 61°   Ceiling: 4500
Heat Index: 61°   Visibility: 6mi
Dew Point: 54°   Wind: 12mph
Humidity: 77%   Direction: 260°W
Pressure: 30.06"   Gusts: NA
Location:  50.95°N, 5.97°E
Report Text: ETNG 201150Z 26010KT 9999 FEW020 SCT025 BKN045 16/12 Q1018 NOSIG
Loading
Personal Weather Stations






























Interactive Weather Map
Tropical Storm Tracking
New forecast layout! Learn more

10-Day Weather Forecast

Advertisements
Track Severe Weather on mobile